Time;durP1;ratioP1;P1;durP2;ratioP2;P2;SDS_P1;SDS_P2;PMS_P1;PMS_P2;Temp;Humidity;BMP_temperature;BMP_pressure;BME280_temperature;BME280_humidity;BME280_pressure;Samples;Min_cycle;Max_cycle;Signal;HPM_P1;HPM_P2
2023/09/10 00:00:45;;;;;;;10.57;6.83;;;;;;;20.57;100.00;99911.16;12191757;19;20976;-85
2023/09/10 00:04:47;;;;;;;;;;;;;;;20.52;100.00;99912.09;12178123;19;20006;-86
2023/09/10 00:08:50;;;;;;;12.17;6.33;;;;;;;20.52;100.00;99911.22;12173191;19;19994;-85
2023/09/10 00:14:13;;;;;;;9.77;6.40;;;;;;;20.50;100.00;99911.56;12190903;19;20022;-86
2023/09/10 00:18:25;;;;;;;9.50;6.32;;;;;;;20.45;100.00;99908.88;12169615;19;20730;-85
2023/09/10 00:22:42;;;;;;;10.25;7.10;;;;;;;20.40;100.00;99904.19;12185996;19;20006;-85
2023/09/10 00:27:05;;;;;;;12.98;8.25;;;;;;;20.34;100.00;99907.41;12170836;19;20013;-85
2023/09/10 00:31:07;;;;;;;12.57;7.43;;;;;;;20.31;100.00;99913.63;12185378;19;20009;-85
2023/09/10 00:35:10;;;;;;;;;;;;;;;20.25;100.00;99907.31;12179231;19;21126;-85
2023/09/10 00:39:12;;;;;;;15.43;7.63;;;;;;;20.24;100.00;99908.47;12146963;19;19910;-85
2023/09/10 00:43:14;;;;;;;10.40;7.93;;;;;;;20.22;100.00;99907.94;12181119;19;20037;-86
2023/09/10 00:47:17;;;;;;;10.68;7.65;;;;;;;20.19;100.00;99898.19;12177634;19;20263;-85
2023/09/10 00:51:19;;;;;;;11.27;7.67;;;;;;;20.19;100.00;99903.78;12152598;19;20029;-85
2023/09/10 00:55:22;;;;;;;12.03;7.73;;;;;;;20.16;100.00;99895.19;12171938;19;20078;-86
2023/09/10 00:59:24;;;;;;;13.00;8.35;;;;;;;20.17;100.00;99902.47;12180763;19;20774;-85
2023/09/10 01:03:30;;;;;;;12.48;8.10;;;;;;;20.16;100.00;99907.22;12168295;19;20014;-86
2023/09/10 01:07:34;;;;;;;16.17;8.55;;;;;;;20.14;100.00;99908.69;12189802;19;20014;-85
2023/09/10 01:11:50;;;;;;;13.95;7.97;;;;;;;20.12;100.00;99913.75;12167911;19;20085;-85
2023/09/10 01:16:01;;;;;;;12.55;7.65;;;;;;;20.12;100.00;99905.38;12183078;19;19999;-85
2023/09/10 01:20:26;;;;;;;12.40;8.10;;;;;;;20.13;100.00;99905.03;12178123;19;20003;-85
2023/09/10 01:24:50;;;;;;;14.95;8.25;;;;;;;20.11;100.00;99909.28;12165091;19;20010;-84
2023/09/10 01:28:52;;;;;;;16.02;8.32;;;;;;;20.12;100.00;99908.16;12176556;19;20014;-84
2023/09/10 01:33:05;;;;;;;13.05;8.00;;;;;;;20.11;100.00;99910.16;12158140;19;20023;-84
2023/09/10 01:37:18;;;;;;;9.43;7.18;;;;;;;20.05;100.00;99903.00;12173075;19;20011;-84
2023/09/10 01:41:21;;;;;;;12.70;8.17;;;;;;;19.98;100.00;99906.19;12181759;19;20011;-85
2023/09/10 01:45:22;;;;;;;;;;;;;;;19.92;100.00;99904.63;12167697;19;20019;-85
2023/09/10 01:49:25;;;;;;;13.48;8.60;;;;;;;19.91;100.00;99904.97;12183701;19;19914;-85
2023/09/10 01:53:27;;;;;;;15.23;7.97;;;;;;;19.87;100.00;99915.94;12183076;19;20007;-85
2023/09/10 01:57:29;;;;;;;12.38;8.05;;;;;;;19.82;100.00;99909.63;12166845;19;20522;-85
2023/09/10 02:01:30;;;;;;;13.07;7.77;;;;;;;19.82;100.00;99895.63;12195951;19;20024;-86
2023/09/10 02:05:33;;;;;;;15.48;8.93;;;;;;;19.78;100.00;99906.56;12197527;19;20034;-85
2023/09/10 02:09:35;;;;;;;14.77;8.40;;;;;;;19.74;100.00;99908.34;12172104;19;20002;-85
2023/09/10 02:13:37;;;;;;;10.88;7.88;;;;;;;19.76;100.00;99890.13;12203777;19;20003;-86
2023/09/10 02:17:39;;;;;;;12.00;7.97;;;;;;;19.74;100.00;99895.19;12178195;19;20007;-86
2023/09/10 02:21:42;;;;;;;10.45;7.85;;;;;;;19.70;100.00;99894.16;12208366;19;20100;-86
2023/09/10 02:25:43;;;;;;;13.67;8.67;;;;;;;19.67;100.00;99902.34;12201186;19;20019;-86
2023/09/10 02:29:45;;;;;;;11.40;7.97;;;;;;;19.64;100.00;99900.13;12163611;19;20018;-86
2023/09/10 02:34:44;;;;;;;;;;;;;;;;;;;;;
2023/09/10 02:39:11;;;;;;;17.25;7.70;;;;;;;19.60;100.00;99894.31;12192403;19;20412;-86
2023/09/10 02:43:12;;;;;;;15.82;8.27;;;;;;;19.55;100.00;99891.63;12208272;19;20034;-85
2023/09/10 02:47:15;;;;;;;;;;;;;;;19.49;100.00;99898.44;12195737;19;20006;-86
2023/09/10 02:51:19;;;;;;;12.05;7.70;;;;;;;19.49;100.00;99893.69;12175163;19;19918;-86
2023/09/10 02:55:22;;;;;;;12.87;8.33;;;;;;;19.50;100.00;99895.31;12198291;19;20094;-85
2023/09/10 02:59:27;;;;;;;13.55;8.80;;;;;;;19.49;100.00;99893.69;12201467;19;20341;-85
2023/09/10 03:03:29;;;;;;;13.00;8.85;;;;;;;19.45;100.00;99901.00;12187640;19;20007;-86
2023/09/10 03:07:32;;;;;;;14.25;8.32;;;;;;;19.41;100.00;99902.75;12206073;19;20675;-86
2023/09/10 03:11:37;;;;;;;13.13;9.40;;;;;;;19.39;100.00;99899.44;12208090;19;20011;-86
2023/09/10 03:15:39;;;;;;;12.82;8.70;;;;;;;19.37;100.00;99901.72;12204853;19;20089;-85
2023/09/10 03:19:43;;;;;;;12.73;8.63;;;;;;;19.37;100.00;99907.31;12206885;19;20015;-85
2023/09/10 03:23:46;;;;;;;13.05;8.65;;;;;;;19.32;100.00;99908.22;12184808;19;20010;-85
2023/09/10 03:27:47;;;;;;;14.87;8.70;;;;;;;19.30;100.00;99901.28;12194541;19;20003;-86
2023/09/10 03:31:50;;;;;;;15.70;9.23;;;;;;;19.27;100.00;99902.72;12197627;19;20014;-85
2023/09/10 03:35:52;;;;;;;;;;;;;;;19.23;100.00;99903.66;12180515;19;22092;-85
2023/09/10 03:39:54;;;;;;;11.60;9.18;;;;;;;19.21;100.00;99903.94;12200858;19;19910;-85
2023/09/10 03:43:57;;;;;;;16.15;8.60;;;;;;;19.18;100.00;99895.34;12208958;19;20105;-86
2023/09/10 03:47:59;;;;;;;11.70;8.68;;;;;;;19.14;100.00;99892.34;12173977;19;20023;-85
2023/09/10 03:52:14;;;;;;;12.98;8.90;;;;;;;19.13;100.00;99896.28;12213274;19;20010;-86
2023/09/10 03:56:16;;;;;;;15.82;9.38;;;;;;;19.06;100.00;99902.22;12194970;19;20047;-84
2023/09/10 04:00:19;;;;;;;12.65;8.73;;;;;;;18.87;100.00;99907.00;12180163;19;20010;-85
2023/09/10 04:04:21;;;;;;;11.75;8.82;;;;;;;18.71;100.00;99916.69;12201089;19;20023;-86
2023/09/10 04:08:23;;;;;;;12.88;10.07;;;;;;;18.60;100.00;99916.84;12188801;19;20359;-86
2023/09/10 04:12:36;;;;;;;11.70;8.70;;;;;;;18.50;100.00;99922.59;12176358;19;20031;-85
2023/09/10 04:16:39;;;;;;;11.45;9.07;;;;;;;18.42;100.00;99926.88;12188727;19;20010;-84
2023/09/10 04:20:41;;;;;;;17.27;9.48;;;;;;;18.33;100.00;99925.06;12171550;19;20006;-85
2023/09/10 04:34:13;;;;;;;17.38;10.80;;;;;;;18.12;100.00;99939.25;12194889;19;20015;-86
2023/09/10 04:38:46;;;;;;;16.27;11.18;;;;;;;18.03;100.00;99946.59;12168701;19;20021;-86
2023/09/10 04:43:08;;;;;;;16.27;10.98;;;;;;;17.95;100.00;99945.28;12196750;19;20034;-86
2023/09/10 04:47:28;;;;;;;17.80;10.48;;;;;;;17.90;100.00;99952.88;12192483;19;20017;-86
2023/09/10 04:52:18;;;;;;;;;;;;;;;;;;;;;
2023/09/10 04:56:53;;;;;;;16.10;10.57;;;;;;;17.87;100.00;99954.28;12163899;19;20086;-85
2023/09/10 05:01:00;;;;;;;19.20;10.68;;;;;;;17.89;100.00;99946.47;12194297;19;20442;-86
2023/09/10 05:05:04;;;;;;;15.13;10.43;;;;;;;17.98;100.00;99949.44;12198424;19;20010;-84
2023/09/10 05:09:08;;;;;;;15.60;10.30;;;;;;;18.01;100.00;99948.03;12166535;19;20006;-84
2023/09/10 05:13:10;;;;;;;13.20;9.68;;;;;;;18.04;100.00;99944.66;12184739;19;20003;-85
2023/09/10 05:17:12;;;;;;;13.73;9.70;;;;;;;18.06;100.00;99954.38;12183571;19;20010;-85
2023/09/10 05:21:14;;;;;;;17.10;9.97;;;;;;;18.07;100.00;99946.84;12169174;19;20017;-85
2023/09/10 05:25:17;;;;;;;17.30;10.75;;;;;;;18.05;100.00;99955.47;12195734;19;20501;-85
2023/09/10 05:29:20;;;;;;;13.77;10.55;;;;;;;17.99;100.00;99967.81;12189986;19;20346;-86
2023/09/10 05:33:23;;;;;;;15.40;9.80;;;;;;;18.02;100.00;99955.25;12175837;19;20015;-85
2023/09/10 05:37:31;;;;;;;17.30;10.32;;;;;;;18.09;100.00;99953.78;12204686;19;20010;-85
2023/09/10 05:41:33;;;;;;;14.17;10.10;;;;;;;18.14;100.00;99947.31;12201457;19;20978;-85
2023/09/10 05:45:35;;;;;;;12.45;9.32;;;;;;;18.24;100.00;99949.16;12174676;19;20003;-85
2023/09/10 05:49:37;;;;;;;15.20;10.43;;;;;;;18.30;100.00;99945.19;12200531;19;20035;-85
2023/09/10 05:53:42;;;;;;;14.03;10.10;;;;;;;18.34;100.00;99951.81;12181722;19;20469;-85
2023/09/10 06:02:15;;;;;;;15.20;9.40;;;;;;;18.42;100.00;99965.09;12200531;19;20317;-86
2023/09/10 06:10:51;;;;;;;15.30;9.98;;;;;;;18.50;100.00;99958.00;12218292;19;20019;-85
2023/09/10 06:15:00;;;;;;;12.65;9.90;;;;;;;18.54;100.00;99973.88;12177037;19;20006;-86
2023/09/10 06:19:03;;;;;;;13.47;9.97;;;;;;;18.52;100.00;99976.13;12202443;19;20003;-86
2023/09/10 06:23:05;;;;;;;14.57;10.65;;;;;;;18.60;100.00;99981.06;12209395;19;20035;-85
2023/09/10 06:27:07;;;;;;;14.70;10.30;;;;;;;18.70;100.00;99984.84;12181067;19;20508;-86
2023/09/10 06:31:09;;;;;;;13.75;10.40;;;;;;;18.75;100.00;99998.75;12204369;19;20355;-86
2023/09/10 06:35:11;;;;;;;14.73;10.37;;;;;;;18.83;100.00;99996.13;12199853;19;20121;-85
2023/09/10 06:39:13;;;;;;;14.75;10.73;;;;;;;18.93;100.00;99997.13;12179640;19;20271;-85
2023/09/10 06:43:15;;;;;;;16.60;12.10;;;;;;;19.02;100.00;100003.69;12199605;19;20028;-85
2023/09/10 06:47:39;;;;;;;18.83;11.85;;;;;;;19.12;100.00;100001.56;12169623;19;20015;-85
2023/09/10 06:51:41;;;;;;;14.60;11.10;;;;;;;19.26;100.00;100006.41;12196766;19;20003;-85
2023/09/10 06:55:43;;;;;;;14.00;10.35;;;;;;;19.37;100.00;100005.13;12194910;19;20002;-85
2023/09/10 06:59:45;;;;;;;16.13;11.43;;;;;;;19.50;100.00;100012.72;12170038;19;20054;-85
2023/09/10 07:03:50;;;;;;;19.58;11.75;;;;;;;19.62;100.00;100006.66;12204787;19;20003;-86
2023/09/10 07:07:53;;;;;;;19.95;11.90;;;;;;;19.71;100.00;100023.59;12188078;19;20405;-87
2023/09/10 07:11:55;;;;;;;20.63;11.60;;;;;;;19.80;100.00;100022.56;12173871;19;20404;-87
2023/09/10 07:15:57;;;;;;;18.77;12.50;;;;;;;20.01;100.00;100025.84;12166225;19;20010;-87
2023/09/10 07:19:59;;;;;;;17.08;11.32;;;;;;;20.18;100.00;100016.03;12205821;19;20351;-87
2023/09/10 07:24:06;;;;;;;16.30;11.65;;;;;;;20.40;100.00;100030.13;12188245;19;20007;-87
2023/09/10 07:28:08;;;;;;;17.83;11.02;;;;;;;20.61;100.00;100024.16;12203163;19;20106;-87
2023/09/10 07:32:13;;;;;;;13.13;10.07;;;;;;;20.86;100.00;100020.81;12204027;19;20010;-86
2023/09/10 07:36:15;;;;;;;15.00;11.00;;;;;;;21.09;100.00;100018.06;12186033;19;20082;-87
2023/09/10 07:40:17;;;;;;;13.57;10.43;;;;;;;21.33;100.00;100013.03;12209196;19;20023;-87
2023/09/10 07:44:18;;;;;;;13.43;9.88;;;;;;;21.60;100.00;100022.50;12214535;19;20002;-87
2023/09/10 07:48:24;;;;;;;15.07;10.57;;;;;;;21.90;100.00;100020.91;12185449;19;20035;-87
2023/09/10 07:52:26;;;;;;;13.67;10.30;;;;;;;22.18;100.00;100020.75;12207666;19;20011;-87
2023/09/10 07:56:41;;;;;;;;;;;;;;;22.52;100.00;100029.34;12215637;19;20010;-86
2023/09/10 08:00:44;;;;;;;13.50;9.88;;;;;;;22.90;100.00;100030.75;12184352;19;19934;-87
2023/09/10 08:04:46;;;;;;;15.35;10.15;;;;;;;23.13;100.00;100037.94;12204103;19;20014;-85
2023/09/10 08:08:53;;;;;;;13.73;10.38;;;;;;;23.37;100.00;100039.47;12185769;19;20021;-88
2023/09/10 08:13:00;;;;;;;15.15;10.55;;;;;;;23.66;100.00;100031.19;12210846;19;20014;-88
2023/09/10 08:17:15;;;;;;;17.58;10.73;;;;;;;23.94;100.00;100030.84;12210514;19;20465;-87
2023/09/10 08:21:33;;;;;;;17.10;10.02;;;;;;;24.18;100.00;100030.28;12215444;19;20019;-88
2023/09/10 08:26:28;;;;;;;13.02;9.32;;;;;;;24.48;100.00;100031.22;12211123;19;20021;-88
2023/09/10 08:30:31;;;;;;;13.05;9.88;;;;;;;24.71;99.68;100025.28;12189054;19;20858;-88
2023/09/10 08:34:33;;;;;;;14.55;10.02;;;;;;;24.86;98.42;100029.53;12209364;19;20027;-86
2023/09/10 08:38:35;;;;;;;16.33;9.38;;;;;;;24.96;95.75;100029.97;12195915;19;20023;-87
2023/09/10 08:42:58;;;;;;;13.45;9.23;;;;;;;25.21;93.70;100028.16;12212514;19;20024;-88
2023/09/10 08:47:17;;;;;;;16.48;9.80;;;;;;;25.55;91.44;100031.03;12233816;19;20003;-89
2023/09/10 08:51:25;;;;;;;14.20;10.55;;;;;;;25.72;89.51;100025.25;12221709;19;20003;-88
2023/09/10 08:55:35;;;;;;;12.35;9.45;;;;;;;25.97;88.52;100020.56;12267377;19;20006;-88
2023/09/10 08:59:38;;;;;;;13.48;9.77;;;;;;;26.18;87.62;100026.13;12245090;19;19995;-90
2023/09/10 09:04:02;;;;;;;13.82;10.23;;;;;;;26.27;83.84;100018.38;12266188;19;20002;-87
2023/09/10 09:08:15;;;;;;;12.18;9.93;;;;;;;26.47;82.63;100015.81;12264417;19;20003;-89
2023/09/10 09:12:20;;;;;;;15.00;9.57;;;;;;;26.67;81.04;100020.56;12237996;19;19995;-88
2023/09/10 09:16:22;;;;;;;12.43;9.32;;;;;;;26.92;80.36;100015.75;12260909;19;19994;-87
2023/09/10 09:20:29;;;;;;;16.70;9.07;;;;;;;27.15;78.67;100018.06;12260699;19;20010;-86
2023/09/10 09:24:33;;;;;;;12.85;9.68;;;;;;;27.38;77.05;100010.72;12205520;19;20003;-88
2023/09/10 09:28:36;;;;;;;12.63;9.32;;;;;;;27.66;74.36;100013.56;12254378;19;20011;-89
2023/09/10 09:32:39;;;;;;;12.20;9.43;;;;;;;27.99;73.10;100006.00;12205547;19;20045;-86
2023/09/10 09:37:11;;;;;;;14.15;8.48;;;;;;;28.03;70.93;100004.91;12224095;19;20046;-89
2023/09/10 09:41:18;;;;;;;12.48;9.02;;;;;;;28.18;70.15;100001.28;12251031;19;20014;-89
2023/09/10 09:45:25;;;;;;;17.77;9.35;;;;;;;28.30;68.19;99993.88;12212913;19;20018;-87
2023/09/10 09:50:01;;;;;;;12.75;9.98;;;;;;;28.54;66.57;99998.56;12232316;19;20933;-87
2023/09/10 09:59:12;;;;;;;11.80;8.45;;;;;;;28.75;63.09;99986.94;12139271;19;2004386;-88
2023/09/10 10:03:22;;;;;;;11.88;8.77;;;;;;;29.07;61.65;99987.72;12207360;19;20016;-87
2023/09/10 10:07:28;;;;;;;11.10;9.02;;;;;;;29.21;61.63;99982.38;12200005;19;20018;-87
2023/09/10 10:11:51;;;;;;;10.77;8.63;;;;;;;29.30;60.40;99967.97;12222428;19;20031;-86
2023/09/10 10:25:52;;;;;;;9.95;8.25;;;;;;;29.75;56.69;99950.25;12146745;19;20010;-87
2023/09/10 10:29:54;;;;;;;12.02;8.50;;;;;;;30.06;56.10;99947.56;12212157;19;20057;-87
2023/09/10 10:34:07;;;;;;;;;;;;;;;30.24;57.20;99942.22;12234457;19;20019;-87
2023/09/10 10:38:21;;;;;;;12.57;8.57;;;;;;;30.55;54.43;99938.25;12217943;19;19911;-87
2023/09/10 10:42:52;;;;;;;9.30;7.85;;;;;;;30.78;52.31;99938.22;12203444;19;20011;-87
2023/09/10 10:47:06;;;;;;;12.50;7.60;;;;;;;30.87;52.47;99938.78;12212920;19;20014;-87
2023/09/10 10:51:37;;;;;;;9.10;7.65;;;;;;;30.98;51.32;99936.91;12195019;19;20026;-86
2023/09/10 10:56:03;;;;;;;9.75;8.75;;;;;;;31.24;50.84;99933.22;12215928;19;20062;-87
2023/09/10 11:00:53;;;;;;;10.55;7.72;;;;;;;31.26;50.17;99925.09;12213208;19;20013;-88
2023/09/10 11:05:15;;;;;;;9.90;7.78;;;;;;;31.64;50.33;99923.13;12218273;19;20025;-87
2023/09/10 11:09:34;;;;;;;10.18;8.57;;;;;;;31.82;49.00;99923.31;12219747;19;20014;-88
2023/09/10 11:18:34;;;;;;;15.43;8.20;;;;;;;31.92;49.37;99910.44;12204844;19;20150;-88
2023/09/10 11:23:06;;;;;;;18.63;8.82;;;;;;;31.98;47.61;99918.22;12231773;19;20069;-88
2023/09/10 11:27:22;;;;;;;14.15;7.68;;;;;;;32.10;46.41;99905.72;12185640;19;20011;-88
2023/09/10 11:31:33;;;;;;;12.02;7.35;;;;;;;32.37;44.51;99891.28;12205021;19;20049;-87
2023/09/10 11:35:37;;;;;;;13.18;7.95;;;;;;;32.56;44.96;99890.19;12191860;19;20070;-86
2023/09/10 11:39:40;;;;;;;19.17;7.53;;;;;;;32.70;44.92;99884.59;12215103;19;20011;-87
2023/09/10 11:43:42;;;;;;;14.70;7.28;;;;;;;33.08;42.89;99888.91;12218581;19;21624;-87
2023/09/10 11:47:47;;;;;;;14.98;7.85;;;;;;;33.66;41.75;99892.78;12191400;19;20010;-87
2023/09/10 11:51:52;;;;;;;15.75;8.77;;;;;;;34.35;40.32;99882.25;12214872;19;20074;-87
2023/09/10 11:56:20;;;;;;;13.25;7.78;;;;;;;35.03;38.50;99884.97;12209766;19;20467;-87
2023/09/10 12:00:23;;;;;;;15.23;8.18;;;;;;;35.47;37.66;99890.13;12185962;19;20014;-87
2023/09/10 12:14:28;;;;;;;13.25;8.15;;;;;;;35.85;35.51;99863.72;12211889;19;20029;-88
2023/09/10 12:23:13;;;;;;;15.70;8.18;;;;;;;36.50;33.16;99851.28;12219980;19;20053;-88
2023/09/10 12:27:16;;;;;;;14.88;8.10;;;;;;;36.45;32.38;99845.19;12204989;19;20014;-87
2023/09/10 12:31:52;;;;;;;17.42;7.97;;;;;;;36.86;32.99;99853.78;12255247;19;19998;-87
2023/09/10 12:36:18;;;;;;;13.68;7.40;;;;;;;37.65;32.19;99846.19;12242061;19;20016;-91
2023/09/10 12:40:34;;;;;;;13.32;7.97;;;;;;;38.05;30.98;99842.28;12253710;19;20030;-86
2023/09/10 12:44:55;;;;;;;13.98;7.78;;;;;;;38.62;30.63;99848.28;12226300;19;20002;-88
2023/09/10 12:49:16;;;;;;;15.73;8.18;;;;;;;38.80;29.82;99845.84;12110784;19;2004339;-87
2023/09/10 12:53:21;;;;;;;17.00;8.05;;;;;;;39.27;29.50;99842.03;12202240;19;20007;-89
2023/09/10 12:58:02;;;;;;;16.88;7.85;;;;;;;39.83;29.38;99842.81;12200275;19;20462;-86
2023/09/10 13:02:46;;;;;;;14.85;7.22;;;;;;;40.21;27.78;99845.16;12206908;19;20017;-87
2023/09/10 13:06:49;;;;;;;15.25;7.75;;;;;;;40.27;28.54;99828.09;12175844;19;20027;-87
2023/09/10 13:10:52;;;;;;;14.98;7.65;;;;;;;40.45;27.54;99828.44;12200431;19;20010;-87
2023/09/10 13:14:54;;;;;;;13.55;7.68;;;;;;;40.68;27.59;99830.31;12178935;19;22725;-86
2023/09/10 13:18:56;;;;;;;14.10;7.82;;;;;;;40.37;26.71;99821.25;12201394;19;20584;-86
2023/09/10 13:22:58;;;;;;;17.10;8.05;;;;;;;39.49;27.20;99817.22;12200940;19;20348;-86
2023/09/10 13:27:00;;;;;;;18.20;6.70;;;;;;;38.62;28.13;99816.63;12176079;19;20010;-88
2023/09/10 13:31:02;;;;;;;19.30;7.72;;;;;;;37.70;29.49;99814.09;12198606;19;20032;-87
2023/09/10 13:35:05;;;;;;;14.32;7.50;;;;;;;37.33;30.20;99821.59;12200099;19;20032;-86
2023/09/10 13:39:07;;;;;;;14.68;6.93;;;;;;;37.90;30.52;99815.00;12181694;19;20060;-88
2023/09/10 13:43:50;;;;;;;15.18;8.27;;;;;;;38.92;29.62;99813.53;12201741;19;20014;-89
2023/09/10 13:48:05;;;;;;;14.10;7.88;;;;;;;39.58;28.98;99807.97;12197285;19;20032;-89
2023/09/10 13:52:17;;;;;;;12.25;7.53;;;;;;;40.02;28.27;99805.66;12194431;19;20006;-88
2023/09/10 13:56:32;;;;;;;14.57;7.85;;;;;;;40.55;27.33;99795.56;12190757;19;20011;-89
2023/09/10 14:00:38;;;;;;;11.68;7.32;;;;;;;40.91;27.07;99793.75;12186737;19;20695;-89
2023/09/10 14:04:45;;;;;;;13.20;7.38;;;;;;;40.16;27.40;99795.78;12199694;19;20011;-87
2023/09/10 14:08:48;;;;;;;16.50;7.88;;;;;;;38.62;28.76;99800.16;12170263;19;20014;-88
2023/09/10 14:13:06;;;;;;;21.52;8.00;;;;;;;37.15;30.11;99795.97;12197681;19;20028;-88
2023/09/10 14:17:34;;;;;;;15.57;7.95;;;;;;;36.18;31.73;99793.41;12194009;19;20007;-87
2023/09/10 14:22:07;;;;;;;22.55;7.97;;;;;;;35.51;32.78;99793.50;12178617;19;20571;-86
2023/09/10 14:26:18;;;;;;;15.43;6.70;;;;;;;35.13;33.00;99790.47;12197107;19;20006;-88
2023/09/10 14:30:21;;;;;;;;;;;;;;;34.96;32.55;99784.81;12183630;19;19999;-88
2023/09/10 14:34:36;;;;;;;17.70;8.15;;;;;;;35.25;32.56;99774.84;12211093;19;20343;-88
2023/09/10 14:39:04;;;;;;;22.63;6.82;;;;;;;35.36;32.28;99777.63;12189788;19;20017;-88
2023/09/10 14:43:06;;;;;;;27.52;7.22;;;;;;;35.09;32.14;99777.41;12216901;19;20010;-86
2023/09/10 14:47:10;;;;;;;14.82;6.55;;;;;;;35.06;32.51;99770.44;12212842;19;20007;-86
2023/09/10 14:51:12;;;;;;;19.23;6.68;;;;;;;34.90;32.28;99764.38;12197765;19;20014;-86
2023/09/10 14:55:14;;;;;;;13.60;6.05;;;;;;;34.78;32.48;99764.88;12228172;19;20039;-86
2023/09/10 14:59:19;;;;;;;16.73;7.78;;;;;;;34.35;32.95;99762.91;12216824;19;20010;-86
2023/09/10 15:03:21;;;;;;;43.65;21.27;;;;;;;34.22;33.28;99762.56;12195745;19;20007;-87
2023/09/10 15:07:24;;;;;;;20.40;7.47;;;;;;;34.32;32.36;99772.31;12215068;19;20021;-87
2023/09/10 15:11:26;;;;;;;19.52;6.20;;;;;;;34.07;32.60;99763.00;12215187;19;20011;-87
2023/09/10 15:15:28;;;;;;;18.15;5.85;;;;;;;33.65;33.19;99758.91;12193362;19;20070;-85
2023/09/10 15:19:30;;;;;;;22.13;6.35;;;;;;;33.41;33.63;99757.66;12210402;19;20069;-86
2023/09/10 15:23:32;;;;;;;26.35;5.72;;;;;;;33.39;33.58;99752.34;12202951;19;20036;-85
2023/09/10 15:27:35;;;;;;;21.17;5.85;;;;;;;32.98;33.62;99749.81;12185474;19;20137;-85
2023/09/10 15:31:37;;;;;;;21.33;6.53;;;;;;;32.98;33.33;99751.81;12208145;19;20039;-85
2023/09/10 15:35:40;;;;;;;21.90;5.75;;;;;;;33.54;33.47;99754.00;12209886;19;20011;-82
2023/09/10 15:39:44;;;;;;;15.35;5.20;;;;;;;33.43;33.89;99749.47;12217933;19;21081;-83
2023/09/10 15:43:46;;;;;;;18.83;5.72;;;;;;;32.73;33.80;99754.59;12220953;19;20024;-86
2023/09/10 15:47:48;;;;;;;22.83;5.70;;;;;;;32.19;35.38;99749.41;12191386;19;20010;-85
2023/09/10 15:51:50;;;;;;;17.25;5.70;;;;;;;31.79;34.92;99745.41;12217064;19;20013;-86
2023/09/10 15:55:52;;;;;;;;;;;;;;;31.46;35.93;99745.56;12219155;19;20816;-86
2023/09/10 15:59:53;;;;;;;18.98;6.07;;;;;;;31.18;36.88;99744.06;12198495;19;19914;-86
2023/09/10 16:03:56;;;;;;;22.75;6.03;;;;;;;30.99;38.11;99739.38;12207387;19;20043;-87
2023/09/10 16:07:58;;;;;;;18.67;6.07;;;;;;;31.03;38.40;99733.72;12206680;19;20003;-86
2023/09/10 16:12:00;;;;;;;;;;;;;;;30.84;38.25;99727.00;12186262;19;20018;-86
2023/09/10 16:16:02;;;;;;;20.42;6.30;;;;;;;30.64;39.53;99731.22;12203463;19;19911;-85
2023/09/10 16:20:05;;;;;;;19.02;5.55;;;;;;;30.37;40.10;99727.63;12204939;19;20007;-86
2023/09/10 16:24:07;;;;;;;24.23;6.35;;;;;;;30.15;42.37;99735.81;12183946;19;20046;-86
2023/09/10 16:28:08;;;;;;;13.52;6.25;;;;;;;30.03;42.07;99735.22;12207163;19;20007;-85
2023/09/10 16:32:11;;;;;;;20.80;7.15;;;;;;;30.08;43.88;99729.22;12220647;19;20010;-87
2023/09/10 16:36:13;;;;;;;;;;;;;;;29.93;43.51;99740.38;12178659;19;20006;-85
2023/09/10 16:40:15;;;;;;;21.17;5.87;;;;;;;29.64;45.16;99738.28;12210266;19;20330;-86
2023/09/10 16:44:18;;;;;;;19.00;6.78;;;;;;;29.37;46.86;99749.56;12201708;19;20372;-85
2023/09/10 16:48:20;;;;;;;18.45;6.55;;;;;;;29.13;48.66;99742.22;12187224;19;20023;-85
2023/09/10 16:52:22;;;;;;;14.70;5.60;;;;;;;28.90;49.45;99747.84;12207112;19;20033;-86
2023/09/10 16:56:23;;;;;;;21.23;6.57;;;;;;;28.69;51.63;99753.09;12205424;19;20370;-85
2023/09/10 17:00:25;;;;;;;22.98;6.22;;;;;;;28.46;52.38;99759.47;12184877;19;20010;-87
2023/09/10 17:04:27;;;;;;;21.35;7.32;;;;;;;28.25;53.02;99759.81;12198357;19;20002;-85
2023/09/10 17:08:30;;;;;;;14.05;5.70;;;;;;;28.04;54.61;99765.78;12202322;19;20027;-85
2023/09/10 17:12:33;;;;;;;19.85;6.32;;;;;;;27.80;55.46;99749.03;12188168;19;20587;-85
2023/09/10 17:16:35;;;;;;;13.68;5.75;;;;;;;27.60;56.29;99759.44;12211575;19;20018;-87
2023/09/10 17:20:36;;;;;;;18.55;6.35;;;;;;;27.37;57.98;99754.41;12189582;19;20027;-85
2023/09/10 17:24:38;;;;;;;18.05;6.72;;;;;;;27.19;58.87;99753.94;12201195;19;23125;-86
2023/09/10 17:28:40;;;;;;;18.88;6.93;;;;;;;27.00;60.41;99743.28;12200248;19;19998;-86
2023/09/10 17:32:42;;;;;;;19.35;6.55;;;;;;;26.78;61.03;99738.25;12180960;19;20034;-85
2023/09/10 17:36:44;;;;;;;19.10;5.90;;;;;;;26.58;61.82;99748.56;12193933;19;20105;-85
2023/09/10 17:40:48;;;;;;;15.27;6.40;;;;;;;26.33;62.67;99736.50;12210395;19;20551;-84
2023/09/10 17:44:51;;;;;;;16.73;6.65;;;;;;;26.11;64.08;99737.84;12176614;19;20018;-79
2023/09/10 17:48:53;;;;;;;21.92;6.60;;;;;;;25.90;65.31;99744.44;12200829;19;20010;-79
2023/09/10 17:52:55;;;;;;;17.23;7.30;;;;;;;25.67;65.71;99741.28;12202458;19;20011;-79
2023/09/10 17:57:00;;;;;;;13.02;5.80;;;;;;;25.50;66.99;99746.31;12180441;19;20022;-80
2023/09/10 18:01:02;;;;;;;;;;;;;;;25.32;66.39;99745.72;12214365;19;20011;-79
2023/09/10 18:05:05;;;;;;;17.17;6.23;;;;;;;25.19;67.35;99754.16;12203020;19;19922;-80
2023/09/10 18:09:07;;;;;;;20.38;6.20;;;;;;;25.04;68.65;99751.16;12193139;19;20014;-81
2023/09/10 18:13:13;;;;;;;23.92;6.70;;;;;;;24.91;69.36;99759.56;12227307;19;20006;-80
2023/09/10 18:17:15;;;;;;;13.15;6.65;;;;;;;24.76;70.21;99757.41;12223460;19;20014;-80
2023/09/10 18:21:18;;;;;;;18.95;7.03;;;;;;;24.62;70.89;99768.97;12201071;19;20015;-80
2023/09/10 18:25:20;;;;;;;13.43;6.23;;;;;;;24.44;71.16;99776.72;12212782;19;20217;-80
2023/09/10 18:29:22;;;;;;;15.35;7.03;;;;;;;24.33;71.51;99767.00;12215685;19;20335;-79
2023/09/10 18:33:24;;;;;;;16.88;6.75;;;;;;;24.27;71.99;99766.41;12194725;19;20111;-79
2023/09/10 18:37:25;;;;;;;15.98;6.63;;;;;;;24.26;72.46;99778.00;12208514;19;20010;-80
2023/09/10 18:41:27;;;;;;;17.37;6.80;;;;;;;24.22;72.81;99777.06;12223479;19;20010;-80
2023/09/10 18:45:31;;;;;;;14.20;7.43;;;;;;;24.19;73.07;99772.94;12194373;19;20011;-79
2023/09/10 18:49:33;;;;;;;18.30;6.68;;;;;;;24.16;73.31;99776.44;12218172;19;20018;-80
2023/09/10 18:53:35;;;;;;;18.30;6.47;;;;;;;24.15;73.95;99776.75;12216485;19;20074;-79
2023/09/10 18:57:38;;;;;;;16.25;6.50;;;;;;;24.07;73.65;99770.84;12236817;19;20017;-79
2023/09/10 19:01:40;;;;;;;19.13;7.07;;;;;;;24.02;74.32;99771.03;12236159;19;20362;-80
2023/09/10 19:05:42;;;;;;;18.33;6.28;;;;;;;23.98;73.51;99772.91;12199333;19;20544;-79
2023/09/10 19:09:46;;;;;;;26.13;7.18;;;;;;;23.93;73.44;99767.47;12216869;19;20075;-80
2023/09/10 19:13:48;;;;;;;20.65;6.25;;;;;;;23.89;73.51;99763.69;12213940;19;20006;-80
2023/09/10 19:17:51;;;;;;;18.48;6.10;;;;;;;23.87;73.25;99766.84;12192795;19;20010;-80
2023/09/10 19:21:53;;;;;;;17.17;5.50;;;;;;;23.86;72.88;99770.00;12214834;19;20073;-79
2023/09/10 19:25:56;;;;;;;16.98;6.43;;;;;;;23.84;72.17;99772.31;12215204;19;20347;-79
2023/09/10 19:29:57;;;;;;;25.80;5.80;;;;;;;23.79;72.32;99776.13;12200037;19;20064;-79
2023/09/10 19:34:02;;;;;;;20.15;7.30;;;;;;;23.76;72.17;99762.75;12221962;19;20018;-80
2023/09/10 19:38:04;;;;;;;14.85;5.95;;;;;;;23.71;72.69;99774.22;12206912;19;20011;-80
2023/09/10 19:42:06;;;;;;;17.13;6.20;;;;;;;23.66;73.21;99772.38;12194551;19;20002;-80
2023/09/10 19:46:08;;;;;;;18.33;6.10;;;;;;;23.63;73.46;99773.06;12210395;19;20041;-79
2023/09/10 19:50:10;;;;;;;19.97;6.57;;;;;;;23.54;74.02;99772.28;12217686;19;20038;-80